Time;durP1;ratioP1;P1;durP2;ratioP2;P2;SDS_P1;SDS_P2;PMS_P1;PMS_P2;Temp;Humidity;BMP_temperature;BMP_pressure;BME280_temperature;BME280_humidity;BME280_pressure;Samples;Min_cycle;Max_cycle;Signal;HPM_P1;HPM_P2
2024/04/16 00:01:24;;;;;;;2.58;0.70;;;;;;;8.33;65.54;99132.00;11378811;25;20303;-63
2024/04/16 00:06:25;;;;;;;2.63;0.57;;;;;;;8.32;65.66;99133.00;11374667;25;20022;-67
2024/04/16 00:11:28;;;;;;;3.70;0.70;;;;;;;8.23;65.91;99108.16;11420620;25;20008;-67
2024/04/16 00:16:29;;;;;;;1.75;0.52;;;;;;;8.09;67.15;99114.69;11387038;25;20076;-67
2024/04/16 00:21:31;;;;;;;4.47;0.85;;;;;;;8.10;67.62;99094.31;11397930;25;20005;-66
2024/04/16 00:26:33;;;;;;;3.65;0.90;;;;;;;8.06;68.01;99091.09;11397222;25;20023;-67
2024/04/16 00:31:34;;;;;;;3.65;0.85;;;;;;;7.95;68.65;99080.59;11398660;25;20030;-67
2024/04/16 00:36:36;;;;;;;5.45;1.23;;;;;;;7.79;69.60;99081.09;11431575;25;20023;-67
2024/04/16 00:41:41;;;;;;;2.75;0.70;;;;;;;7.84;69.66;99078.06;11436467;25;20101;-67
2024/04/16 00:46:43;;;;;;;6.15;1.40;;;;;;;7.94;69.49;99078.91;11434819;25;20005;-67
2024/04/16 00:51:46;;;;;;;2.70;0.57;;;;;;;7.95;69.43;99072.66;11397739;25;20001;-67
2024/04/16 00:56:47;;;;;;;3.97;0.65;;;;;;;8.18;68.74;99075.06;11414521;25;20553;-67
2024/04/16 01:01:49;;;;;;;4.32;1.10;;;;;;;8.17;68.04;99073.38;11419786;25;20012;-67
2024/04/16 01:06:51;;;;;;;3.28;0.70;;;;;;;8.23;67.32;99096.72;11429062;25;20017;-67
2024/04/16 01:11:56;;;;;;;4.15;0.75;;;;;;;8.21;67.84;99083.59;11419845;25;20000;-67
2024/04/16 01:16:58;;;;;;;2.83;1.33;;;;;;;8.22;67.07;99081.78;11397100;25;20285;-68
2024/04/16 01:21:59;;;;;;;1.80;0.50;;;;;;;8.29;67.63;99082.91;11424102;25;20005;-67
2024/04/16 01:27:01;;;;;;;6.50;0.85;;;;;;;8.30;67.69;99071.31;11430253;25;20041;-67
2024/04/16 01:32:02;;;;;;;3.83;0.80;;;;;;;8.52;66.32;99075.56;11403704;25;20001;-68
2024/04/16 01:37:07;;;;;;;2.97;0.85;;;;;;;8.56;66.35;99084.09;11439080;25;20187;-67
2024/04/16 01:42:08;;;;;;;2.00;0.50;;;;;;;8.74;66.53;99087.72;11369993;25;20081;-67
2024/04/16 01:47:10;;;;;;;2.95;0.82;;;;;;;8.78;65.23;99089.09;11441073;25;20013;-66
2024/04/16 01:52:13;;;;;;;4.05;0.77;;;;;;;8.70;65.51;99110.19;11401868;25;20015;-67
2024/04/16 01:57:15;;;;;;;1.42;0.35;;;;;;;8.67;66.17;99087.41;11434286;25;20023;-67
2024/04/16 02:02:17;;;;;;;2.90;0.30;;;;;;;8.35;65.92;99074.41;11356882;25;20028;-67
2024/04/16 02:07:20;;;;;;;2.45;0.47;;;;;;;8.45;64.51;99056.72;11380811;25;20022;-66
2024/04/16 02:12:21;;;;;;;1.95;0.47;;;;;;;8.08;65.36;99037.97;11441687;25;20061;-68
2024/04/16 02:17:24;;;;;;;2.08;0.28;;;;;;;8.40;64.78;99042.16;11441434;25;20466;-67
2024/04/16 02:22:26;;;;;;;1.63;0.40;;;;;;;8.57;64.52;99038.00;11393207;25;20468;-67
2024/04/16 02:27:27;;;;;;;2.35;0.47;;;;;;;8.57;64.43;99038.00;11440768;25;20015;-67
2024/04/16 02:32:29;;;;;;;1.75;0.38;;;;;;;8.35;64.13;99044.38;11391880;25;20001;-68
2024/04/16 02:37:31;;;;;;;1.23;0.28;;;;;;;8.27;63.86;99039.78;11437703;25;20010;-67
2024/04/16 02:42:35;;;;;;;2.75;0.60;;;;;;;8.14;64.24;99037.41;11425296;25;20513;-68
2024/04/16 02:47:36;;;;;;;1.35;0.60;;;;;;;7.84;64.09;99025.09;11387219;25;20180;-68
2024/04/16 02:52:40;;;;;;;4.03;0.43;;;;;;;7.72;65.61;99056.97;11430852;25;20015;-67
2024/04/16 02:57:42;;;;;;;3.83;1.02;;;;;;;7.76;66.12;99065.47;11421928;25;20000;-67
2024/04/16 03:02:44;;;;;;;1.88;0.35;;;;;;;7.87;65.21;99061.91;11427325;25;20004;-67
2024/04/16 03:07:49;;;;;;;3.58;0.50;;;;;;;7.73;65.59;99071.91;11391716;25;20136;-68
2024/04/16 03:12:53;;;;;;;1.33;0.75;;;;;;;7.70;66.02;99072.16;11324449;25;20021;-68
2024/04/16 03:17:54;;;;;;;1.75;0.20;;;;;;;7.78;65.69;99058.25;11438776;25;20016;-66
2024/04/16 03:22:58;;;;;;;1.75;0.30;;;;;;;7.56;67.14;99059.28;11407479;25;20026;-68
2024/04/16 03:27:59;;;;;;;1.15;0.30;;;;;;;7.58;65.84;99065.28;11397343;25;20004;-68
2024/04/16 03:33:01;;;;;;;0.63;0.20;;;;;;;7.63;66.55;99068.38;11421982;25;20024;-68
2024/04/16 03:38:04;;;;;;;1.95;0.45;;;;;;;7.80;65.84;99064.25;11433224;25;20128;-67
2024/04/16 03:43:06;;;;;;;2.08;0.50;;;;;;;7.78;65.70;99064.38;11411686;25;20394;-68
2024/04/16 03:48:09;;;;;;;2.63;0.30;;;;;;;7.64;66.66;99077.16;11387880;25;20025;-68
2024/04/16 03:53:11;;;;;;;2.97;0.40;;;;;;;7.42;66.68;99053.38;11410158;25;20012;-68
2024/04/16 03:58:13;;;;;;;2.50;0.57;;;;;;;7.39;66.69;99052.81;11419379;25;20020;-66
2024/04/16 04:03:17;;;;;;;2.95;0.40;;;;;;;7.59;66.37;99077.53;11398342;25;20035;-66
2024/04/16 04:08:18;;;;;;;1.15;0.40;;;;;;;7.52;66.83;99065.81;11401000;25;20005;-66
2024/04/16 04:13:20;;;;;;;2.97;0.30;;;;;;;7.43;66.38;99070.94;11398932;25;19996;-67
2024/04/16 04:18:21;;;;;;;1.55;0.30;;;;;;;7.41;67.54;99064.91;11404944;25;20068;-67
2024/04/16 04:23:24;;;;;;;3.00;0.50;;;;;;;7.16;68.19;99062.69;11405920;25;20073;-67
2024/04/16 04:28:26;;;;;;;2.30;0.47;;;;;;;7.06;68.65;99058.19;11409151;25;20339;-68
2024/04/16 04:33:27;;;;;;;2.80;0.45;;;;;;;7.01;68.90;99049.81;11452101;25;20001;-67
2024/04/16 04:38:29;;;;;;;1.83;0.38;;;;;;;7.01;68.78;99047.19;11440885;25;20357;-67
2024/04/16 04:43:31;;;;;;;1.92;0.40;;;;;;;6.90;68.59;99036.66;11424228;25;20004;-62
2024/04/16 04:48:34;;;;;;;2.40;0.55;;;;;;;7.00;68.27;99058.72;11449070;25;20045;-62
2024/04/16 04:53:38;;;;;;;3.25;0.50;;;;;;;6.73;69.21;99043.38;11443307;25;20020;-63
2024/04/16 04:58:40;;;;;;;2.38;1.05;;;;;;;6.87;69.14;99044.84;11444451;25;20083;-64
2024/04/16 05:03:41;;;;;;;2.35;0.50;;;;;;;6.91;69.58;99051.56;11412579;25;20086;-64
2024/04/16 05:08:43;;;;;;;2.58;0.73;;;;;;;6.99;69.38;99051.75;11431627;25;20065;-63
2024/04/16 05:13:44;;;;;;;2.65;0.60;;;;;;;7.02;69.22;99040.91;11373015;25;20117;-62
2024/04/16 05:18:46;;;;;;;3.60;0.77;;;;;;;7.04;69.39;99032.84;11462511;25;20009;-64
2024/04/16 05:23:48;;;;;;;2.42;0.80;;;;;;;6.93;69.62;99028.47;11461874;25;20037;-63
2024/04/16 05:28:50;;;;;;;4.15;1.33;;;;;;;6.90;70.07;99028.72;11456805;25;20020;-63
2024/04/16 05:33:52;;;;;;;3.25;1.23;;;;;;;7.04;70.14;99023.09;11461097;25;20434;-62
2024/04/16 05:38:54;;;;;;;6.13;1.00;;;;;;;6.98;70.09;98996.31;11458152;25;20812;-65
2024/04/16 05:43:55;;;;;;;4.70;1.42;;;;;;;7.51;69.10;99017.31;11456341;25;20801;-63
2024/04/16 05:48:58;;;;;;;3.22;0.77;;;;;;;7.41;69.63;99011.97;11417747;25;20520;-63
2024/04/16 05:54:03;;;;;;;3.15;0.80;;;;;;;7.46;69.54;99010.75;11446539;25;20011;-63
2024/04/16 05:59:05;;;;;;;5.30;1.45;;;;;;;7.58;69.12;99028.19;11423605;25;20492;-64
2024/04/16 06:04:06;;;;;;;4.15;1.00;;;;;;;7.39;69.71;98999.84;11449124;25;20052;-62
2024/04/16 06:09:08;;;;;;;7.50;1.70;;;;;;;7.55;69.52;99016.09;11423041;25;20048;-63
2024/04/16 06:14:12;;;;;;;5.18;1.35;;;;;;;7.58;68.70;99012.31;11431639;25;20336;-63
2024/04/16 06:19:14;;;;;;;5.67;1.10;;;;;;;7.74;68.91;98999.38;11407905;25;20450;-64
2024/04/16 06:24:20;;;;;;;6.00;1.38;;;;;;;7.66;69.28;99001.88;11448975;25;20004;-62
2024/04/16 06:29:21;;;;;;;4.15;1.20;;;;;;;7.59;68.85;98984.84;11414696;25;20016;-63
2024/04/16 06:34:23;;;;;;;5.95;2.45;;;;;;;7.68;68.28;98999.94;11376851;25;20106;-61
2024/04/16 06:39:25;;;;;;;7.90;1.70;;;;;;;7.56;68.86;98998.38;11430623;25;20016;-63
2024/04/16 06:44:27;;;;;;;5.85;1.30;;;;;;;7.78;67.68;98974.31;11449585;25;20671;-63
2024/04/16 06:49:29;;;;;;;3.03;1.17;;;;;;;8.08;66.63;98985.78;11405090;25;20018;-63
2024/04/16 06:54:31;;;;;;;5.88;1.33;;;;;;;8.26;65.86;98977.13;11423921;25;20067;-62
2024/04/16 06:59:33;;;;;;;5.22;1.40;;;;;;;8.12;66.58;98978.38;11456449;25;20304;-61
2024/04/16 07:04:34;;;;;;;3.40;1.10;;;;;;;8.22;66.65;98986.34;11410090;25;20013;-63
2024/04/16 07:09:36;;;;;;;3.75;1.33;;;;;;;8.35;66.15;98984.25;11443568;25;20080;-60
2024/04/16 07:14:38;;;;;;;5.80;1.42;;;;;;;8.19;66.71;98968.06;11459854;25;20054;-61
2024/04/16 07:19:39;;;;;;;3.97;0.85;;;;;;;8.25;66.65;98975.47;11405673;25;20016;-62
2024/04/16 07:24:41;;;;;;;4.20;1.25;;;;;;;8.12;67.23;98958.03;11385172;25;20002;-62
2024/04/16 07:29:42;;;;;;;3.97;1.40;;;;;;;8.36;66.69;98956.75;11416465;25;20005;-62
2024/04/16 07:34:45;;;;;;;5.35;1.20;;;;;;;8.44;66.25;98964.03;11424066;25;20016;-64
2024/04/16 07:39:47;;;;;;;4.72;1.30;;;;;;;8.27;66.93;98954.94;11460395;25;20012;-62
2024/04/16 07:44:48;;;;;;;5.85;1.45;;;;;;;8.30;67.16;98941.41;11446855;25;20402;-61
2024/04/16 07:49:50;;;;;;;3.28;1.27;;;;;;;8.43;66.85;98939.28;11456672;25;20031;-62
2024/04/16 07:54:51;;;;;;;4.03;1.42;;;;;;;8.54;66.08;98938.34;11405741;25;20530;-62
2024/04/16 07:59:53;;;;;;;4.40;1.33;;;;;;;8.77;65.84;98933.53;11453522;25;20053;-62
2024/04/16 08:04:54;;;;;;;7.90;1.17;;;;;;;8.91;64.31;98928.75;11462589;25;20005;-61
2024/04/16 08:09:57;;;;;;;3.90;1.00;;;;;;;8.53;65.84;98920.75;11458110;25;20483;-61
2024/04/16 08:14:59;;;;;;;2.60;0.65;;;;;;;8.58;64.87;98902.56;11388203;25;20004;-61
2024/04/16 08:20:01;;;;;;;3.58;0.80;;;;;;;8.59;64.53;98909.56;11365571;25;20480;-62
2024/04/16 08:25:05;;;;;;;2.58;0.90;;;;;;;8.77;64.23;98906.19;11436171;25;20077;-63
2024/04/16 08:30:07;;;;;;;2.78;0.60;;;;;;;8.45;64.37;98865.78;11450467;25;20012;-62
2024/04/16 08:35:11;;;;;;;2.58;0.60;;;;;;;8.49;65.40;98891.00;11401558;25;20442;-61
2024/04/16 08:40:14;;;;;;;3.25;0.60;;;;;;;8.61;66.61;98880.25;11397795;25;20015;-61
2024/04/16 08:45:17;;;;;;;3.67;0.80;;;;;;;8.59;67.93;98890.19;11425863;25;20000;-62
2024/04/16 08:50:21;;;;;;;3.30;0.70;;;;;;;8.66;69.45;98873.53;11394596;25;20154;-62
2024/04/16 08:55:26;;;;;;;2.28;0.32;;;;;;;8.41;71.93;98895.34;11432525;25;20005;-61
2024/04/16 09:00:28;;;;;;;2.08;0.55;;;;;;;8.42;73.76;98871.34;11399993;25;20075;-62
2024/04/16 09:05:29;;;;;;;5.95;1.98;;;;;;;8.20;77.13;98877.81;11419951;25;20009;-62
2024/04/16 09:10:32;;;;;;;2.13;0.70;;;;;;;8.12;78.76;98883.81;11394335;25;20084;-61
2024/04/16 09:15:37;;;;;;;1.77;0.52;;;;;;;7.85;80.78;98873.06;11445706;25;20008;-61
2024/04/16 09:20:39;;;;;;;5.10;0.55;;;;;;;7.78;83.07;98884.22;11442937;25;20021;-63
2024/04/16 09:25:40;;;;;;;2.25;0.70;;;;;;;7.87;83.15;98871.16;11320778;25;20002;-61
2024/04/16 09:30:56;;;;;;;5.10;0.73;;;;;;;7.78;84.37;98859.56;11434596;25;20501;-62
2024/04/16 09:35:57;;;;;;;1.85;0.50;;;;;;;7.85;85.45;98851.88;11423968;25;20001;-60
2024/04/16 09:40:59;;;;;;;1.90;0.47;;;;;;;7.78;86.05;98857.75;11436775;25;19992;-61
2024/04/16 09:46:03;;;;;;;1.95;0.70;;;;;;;7.64;87.14;98847.59;11429844;25;20011;-62
2024/04/16 09:51:05;;;;;;;2.20;0.90;;;;;;;7.79;88.30;98848.84;11439602;25;20009;-61
2024/04/16 09:56:09;;;;;;;3.65;1.08;;;;;;;8.03;88.49;98847.56;11398233;25;20622;-62
2024/04/16 10:01:11;;;;;;;1.83;0.43;;;;;;;7.89;89.01;98830.25;11415520;25;20733;-62
2024/04/16 10:06:12;;;;;;;1.40;0.88;;;;;;;7.92;90.57;98811.44;11424804;25;20042;-62
2024/04/16 10:11:17;;;;;;;1.67;0.70;;;;;;;7.86;90.70;98835.03;11464309;25;20690;-62
2024/04/16 10:16:33;;;;;;;3.80;0.93;;;;;;;8.03;92.10;98850.22;11445458;25;20172;-61
2024/04/16 10:21:39;;;;;;;3.80;1.10;;;;;;;8.12;92.31;98833.44;11429366;25;20523;-63
2024/04/16 10:26:45;;;;;;;1.30;0.80;;;;;;;8.01;92.97;98815.03;11434744;25;20596;-62
2024/04/16 10:31:50;;;;;;;2.80;1.20;;;;;;;8.05;93.65;98811.13;11420578;25;19997;-61
2024/04/16 10:36:55;;;;;;;1.63;0.90;;;;;;;8.30;93.91;98804.38;11422819;25;20005;-61
2024/04/16 10:41:58;;;;;;;1.80;0.93;;;;;;;8.26;92.98;98789.75;11408686;25;20017;-61
2024/04/16 10:47:00;;;;;;;1.63;0.82;;;;;;;8.44;92.72;98794.31;11408426;25;20016;-62
2024/04/16 10:52:09;;;;;;;2.72;0.95;;;;;;;8.40;92.15;98799.03;11418365;25;19996;-62
2024/04/16 10:57:11;;;;;;;3.05;0.80;;;;;;;8.42;91.78;98797.09;11379964;25;20090;-62
2024/04/16 11:02:13;;;;;;;2.20;1.08;;;;;;;8.48;91.78;98777.97;11445023;25;20724;-60
2024/04/16 11:07:18;;;;;;;2.15;0.40;;;;;;;8.47;89.30;98792.22;11412412;25;19997;-61
2024/04/16 11:12:20;;;;;;;1.90;0.65;;;;;;;8.64;89.63;98805.69;11426194;25;20068;-61
2024/04/16 11:17:21;;;;;;;2.10;0.63;;;;;;;8.72;88.87;98779.28;11461641;25;20001;-61
2024/04/16 11:22:26;;;;;;;2.27;0.50;;;;;;;8.89;87.20;98776.78;11449959;25;20339;-61
2024/04/16 11:27:29;;;;;;;1.85;0.32;;;;;;;9.18;86.33;98771.28;11451903;25;20000;-62
2024/04/16 11:32:31;;;;;;;2.07;0.47;;;;;;;9.47;84.09;98765.75;11436923;25;19992;-61
2024/04/16 11:37:36;;;;;;;1.30;0.30;;;;;;;9.61;82.14;98753.75;11426204;25;20398;-60
2024/04/16 11:42:42;;;;;;;1.80;0.25;;;;;;;9.90;80.91;98756.09;11388589;25;20148;-62
2024/04/16 11:47:45;;;;;;;1.10;0.20;;;;;;;9.76;79.24;98746.06;11431872;25;20004;-62
2024/04/16 11:52:46;;;;;;;1.67;0.40;;;;;;;9.85;78.11;98749.59;11434787;25;20022;-62
2024/04/16 11:57:48;;;;;;;1.13;0.20;;;;;;;9.92;78.34;98758.59;11464133;25;20045;-62
2024/04/16 12:02:49;;;;;;;1.67;0.28;;;;;;;10.01;78.61;98751.53;11383970;25;20021;-61
2024/04/16 12:07:51;;;;;;;1.92;0.30;;;;;;;10.04;78.29;98744.09;11444403;25;20598;-63
2024/04/16 12:12:53;;;;;;;1.80;0.30;;;;;;;10.11;77.40;98754.91;11448719;25;20000;-61
2024/04/16 12:17:55;;;;;;;1.83;0.30;;;;;;;10.22;76.21;98738.72;11419240;25;20679;-62
2024/04/16 12:22:58;;;;;;;1.25;0.38;;;;;;;10.36;74.72;98739.97;11432491;25;20751;-63
2024/04/16 12:28:00;;;;;;;0.98;0.32;;;;;;;10.61;73.65;98748.88;11398248;25;20366;-61
2024/04/16 12:33:02;;;;;;;1.05;0.20;;;;;;;10.61;72.98;98764.84;11480664;25;19999;-62
2024/04/16 12:38:16;;;;;;;;;;;;;;;10.64;70.87;98760.19;11442919;25;19997;-62
2024/04/16 12:43:19;;;;;;;3.40;0.20;;;;;;;10.69;69.53;98744.56;11373007;25;20354;-62
2024/04/16 12:48:22;;;;;;;0.47;0.13;;;;;;;10.63;70.18;98743.41;11389026;25;20001;-61
2024/04/16 12:53:24;;;;;;;0.52;0.10;;;;;;;10.65;70.84;98745.91;11450442;25;19997;-61
2024/04/16 12:58:28;;;;;;;0.82;0.10;;;;;;;10.69;70.78;98736.56;11428936;25;20001;-61
2024/04/16 13:03:29;;;;;;;1.10;0.38;;;;;;;10.89;70.44;98753.94;11463852;25;20015;-61
2024/04/16 13:08:32;;;;;;;1.05;0.20;;;;;;;10.93;70.64;98755.31;11440348;25;20006;-62
2024/04/16 13:13:35;;;;;;;1.52;0.17;;;;;;;10.91;70.93;98757.31;11430105;25;20875;-62
2024/04/16 13:18:37;;;;;;;1.35;0.20;;;;;;;10.86;70.61;98740.97;11445733;25;20006;-62
2024/04/16 13:23:39;;;;;;;2.20;0.60;;;;;;;10.88;69.11;98746.94;11467621;25;20009;-62
2024/04/16 13:28:44;;;;;;;1.13;0.10;;;;;;;10.79;67.72;98729.28;11449518;25;19997;-62
2024/04/16 13:33:46;;;;;;;0.93;0.35;;;;;;;10.86;66.05;98740.97;11415015;25;20046;-61
2024/04/16 13:38:48;;;;;;;0.73;0.20;;;;;;;10.98;65.68;98748.66;11458540;25;20094;-62
2024/04/16 13:43:50;;;;;;;0.90;0.20;;;;;;;11.00;63.39;98741.34;11425142;25;20458;-62
2024/04/16 13:48:53;;;;;;;0.45;0.13;;;;;;;11.03;64.96;98756.97;11452503;25;20749;-62
2024/04/16 13:53:55;;;;;;;0.82;0.13;;;;;;;11.07;65.26;98784.97;11444636;25;20719;-62
2024/04/16 13:58:58;;;;;;;1.85;0.20;;;;;;;11.11;68.03;98812.94;11388867;25;19997;-62
2024/04/16 14:04:00;;;;;;;1.92;0.55;;;;;;;10.68;76.92;98836.06;11420420;25;20023;-61
2024/04/16 14:09:03;;;;;;;3.13;0.45;;;;;;;10.44;81.04;98850.88;11351080;25;20417;-64
2024/04/16 14:14:06;;;;;;;1.25;0.10;;;;;;;9.88;81.39;98856.44;11454373;25;20328;-62
2024/04/16 14:19:10;;;;;;;0.22;0.20;;;;;;;9.93;82.53;98858.63;11448489;25;20740;-62
2024/04/16 14:24:18;;;;;;;1.02;0.13;;;;;;;9.45;82.88;98860.69;11406009;25;20000;-62
2024/04/16 14:29:21;;;;;;;0.93;0.10;;;;;;;9.03;84.51;98885.09;11454257;25;20015;-62
2024/04/16 14:34:24;;;;;;;0.65;0.00;;;;;;;8.91;84.09;98896.91;11424036;25;20017;-63
2024/04/16 14:39:26;;;;;;;1.33;0.10;;;;;;;8.84;86.37;98892.19;11436616;25;20072;-62
2024/04/16 14:44:28;;;;;;;1.23;0.20;;;;;;;9.35;87.24;98897.09;11428460;25;20000;-61
2024/04/16 14:49:29;;;;;;;0.65;0.10;;;;;;;9.23;85.89;98912.38;11421042;25;20015;-60
2024/04/16 14:54:31;;;;;;;0.40;0.20;;;;;;;9.34;87.72;98914.84;11457394;25;20006;-62
2024/04/16 14:59:33;;;;;;;0.85;0.10;;;;;;;9.66;86.36;98928.63;11424032;25;20092;-62
2024/04/16 15:04:35;;;;;;;0.68;0.17;;;;;;;9.38;85.08;98920.69;11449778;25;20049;-64
2024/04/16 15:09:39;;;;;;;0.75;0.10;;;;;;;9.43;85.43;98926.41;11451771;25;20111;-65
2024/04/16 15:14:40;;;;;;;0.55;0.10;;;;;;;9.27;85.33;98910.28;11426385;25;20019;-62
2024/04/16 15:19:42;;;;;;;0.60;0.10;;;;;;;9.45;84.65;98932.41;11456156;25;20023;-62
2024/04/16 15:24:44;;;;;;;1.50;0.20;;;;;;;9.61;87.61;98949.50;11460242;25;20004;-62
2024/04/16 15:29:46;;;;;;;1.23;0.10;;;;;;;9.58;86.29;98936.50;11455383;25;20009;-62
2024/04/16 15:34:48;;;;;;;0.50;0.20;;;;;;;9.61;87.46;98917.59;11390943;25;20001;-60
2024/04/16 15:39:51;;;;;;;4.20;0.43;;;;;;;9.70;87.29;98898.13;11408314;25;20364;-61
2024/04/16 15:44:53;;;;;;;0.30;0.13;;;;;;;9.79;86.11;98907.84;11439327;25;20011;-62
2024/04/16 15:49:54;;;;;;;1.33;0.32;;;;;;;9.91;85.25;98917.25;11485158;25;20079;-62
2024/04/16 15:54:57;;;;;;;0.28;0.10;;;;;;;9.86;85.07;98926.66;11399019;25;20085;-63
2024/04/16 15:59:59;;;;;;;1.60;0.57;;;;;;;9.78;84.93;98931.91;11428444;25;20029;-64
2024/04/16 16:05:00;;;;;;;0.73;0.20;;;;;;;9.82;84.67;98930.63;11436260;25;20010;-64
2024/04/16 16:10:02;;;;;;;0.82;0.30;;;;;;;9.94;85.76;98948.03;11473417;25;20441;-64
2024/04/16 16:15:07;;;;;;;1.25;0.40;;;;;;;9.75;86.26;98959.63;11469165;25;20013;-64
2024/04/16 16:20:09;;;;;;;0.75;0.47;;;;;;;9.82;89.44;98978.47;11422261;25;20064;-65
2024/04/16 16:25:11;;;;;;;4.40;0.57;;;;;;;9.87;88.28;98978.84;11364940;25;20102;-66
2024/04/16 16:30:12;;;;;;;1.45;0.30;;;;;;;9.76;90.46;98982.56;11445270;25;20009;-65
2024/04/16 16:35:17;;;;;;;0.73;0.40;;;;;;;9.89;90.29;98975.06;11454153;25;20445;-65
2024/04/16 16:40:18;;;;;;;1.95;0.38;;;;;;;9.84;87.47;98969.34;11430558;25;20144;-65
2024/04/16 16:45:20;;;;;;;0.20;0.08;;;;;;;9.75;84.56;98967.59;11441625;25;20001;-65
2024/04/16 16:50:25;;;;;;;0.57;0.05;;;;;;;9.87;83.33;98946.97;11384078;25;20490;-65
2024/04/16 16:55:27;;;;;;;0.57;0.10;;;;;;;10.00;82.80;98947.41;11425375;25;20006;-65
2024/04/16 17:00:28;;;;;;;0.77;0.45;;;;;;;9.83;82.25;98980.13;11445445;25;20000;-64
2024/04/16 17:05:31;;;;;;;0.45;0.10;;;;;;;9.91;84.42;98985.53;11476882;25;20000;-66
2024/04/16 17:10:32;;;;;;;0.40;0.15;;;;;;;10.06;84.65;98999.16;11431347;25;20000;-67
2024/04/16 17:15:37;;;;;;;0.60;0.25;;;;;;;10.21;83.94;99007.44;11387435;25;20020;-65
2024/04/16 17:20:38;;;;;;;0.88;0.10;;;;;;;10.14;80.40;99007.19;11382925;25;20440;-64
2024/04/16 17:25:40;;;;;;;1.20;0.30;;;;;;;10.03;80.34;99026.06;11429849;25;20012;-63
2024/04/16 17:30:42;;;;;;;0.80;0.50;;;;;;;9.75;80.87;99023.41;11411312;25;19996;-64
2024/04/16 17:35:43;;;;;;;0.85;0.20;;;;;;;9.70;82.45;99028.34;11477930;25;20302;-65
2024/04/16 17:40:45;;;;;;;3.30;2.58;;;;;;;9.86;81.56;99040.97;11461373;25;20000;-64
2024/04/16 17:45:49;;;;;;;1.77;0.70;;;;;;;9.86;81.16;99041.81;11442064;25;20007;-65
2024/04/16 17:51:03;;;;;;;0.70;0.40;;;;;;;9.82;80.60;99045.75;11452707;25;20001;-64
2024/04/16 17:56:11;;;;;;;0.68;0.63;;;;;;;9.77;80.82;99044.50;11434994;25;20330;-64
2024/04/16 18:01:14;;;;;;;1.02;0.40;;;;;;;9.71;83.53;99045.94;11415269;25;20020;-65
2024/04/16 18:06:18;;;;;;;2.25;0.70;;;;;;;9.86;81.31;99057.75;11425310;25;20017;-65
2024/04/16 18:11:25;;;;;;;1.40;0.63;;;;;;;9.80;82.10;99058.31;11445575;25;19993;-64
2024/04/16 18:16:27;;;;;;;0.70;0.30;;;;;;;9.77;82.53;99071.09;11455344;25;19997;-65
2024/04/16 18:21:29;;;;;;;0.55;0.25;;;;;;;9.86;82.52;99089.66;11413011;25;20009;-64
2024/04/16 18:26:31;;;;;;;1.20;0.50;;;;;;;9.93;82.39;99095.22;11370286;25;20101;-65
2024/04/16 18:31:32;;;;;;;1.15;0.90;;;;;;;9.93;82.09;99099.69;11400714;25;20000;-65
2024/04/16 18:36:37;;;;;;;1.38;0.75;;;;;;;9.74;82.11;99066.91;11428639;25;20081;-65
2024/04/16 18:41:39;;;;;;;0.50;0.25;;;;;;;9.93;81.38;99105.00;11415059;25;20052;-63
2024/04/16 18:46:40;;;;;;;0.50;0.30;;;;;;;9.95;80.62;99124.31;11463692;25;20008;-65
2024/04/16 18:51:41;;;;;;;1.10;0.70;;;;;;;10.01;81.80;99123.72;11489757;25;20004;-65
2024/04/16 18:56:44;;;;;;;0.73;0.40;;;;;;;10.05;81.14;99122.44;11426735;25;20080;-64
2024/04/16 19:01:45;;;;;;;0.90;0.30;;;;;;;9.84;79.88;99120.84;11469235;25;20043;-64
2024/04/16 19:06:47;;;;;;;1.23;0.28;;;;;;;9.88;80.41;99127.56;11482018;25;20013;-63
2024/04/16 19:11:50;;;;;;;2.05;1.85;;;;;;;9.78;80.52;99110.81;11483438;25;19992;-65
2024/04/16 19:16:52;;;;;;;1.27;0.60;;;;;;;9.91;80.92;99129.09;11448543;25;20001;-64
2024/04/16 19:21:54;;;;;;;0.60;0.40;;;;;;;9.95;81.32;99145.56;11444066;25;21039;-65
2024/04/16 19:26:55;;;;;;;0.95;0.50;;;;;;;9.84;80.30;99142.09;11467269;25;20000;-65
2024/04/16 19:31:57;;;;;;;0.82;0.40;;;;;;;9.91;81.61;99151.19;11401338;25;20067;-64
2024/04/16 19:37:01;;;;;;;0.90;0.45;;;;;;;9.94;80.20;99157.19;11475003;25;20400;-65
2024/04/16 19:42:06;;;;;;;2.03;0.60;;;;;;;9.95;81.47;99159.69;11411454;25;19994;-65
2024/04/16 19:47:12;;;;;;;0.70;0.50;;;;;;;9.97;81.30;99170.19;11424691;25;19997;-63
2024/04/16 19:52:13;;;;;;;1.45;0.70;;;;;;;9.98;81.54;99177.16;11482997;25;20016;-64
2024/04/16 19:57:15;;;;;;;1.33;0.60;;;;;;;9.93;81.57;99169.63;11460861;25;19993;-65
2024/04/16 20:02:16;;;;;;;1.30;0.68;;;;;;;10.01;81.81;99180.41;11371689;25;20016;-64
2024/04/16 20:07:18;;;;;;;1.85;0.80;;;;;;;9.93;81.73;99168.81;11416863;25;20000;-65
2024/04/16 20:12:22;;;;;;;1.10;0.80;;;;;;;10.03;81.85;99183.75;11476282;25;20099;-64
2024/04/16 20:17:24;;;;;;;1.23;1.13;;;;;;;9.99;80.88;99192.16;11457577;25;20022;-66
2024/04/16 20:22:25;;;;;;;1.30;0.90;;;;;;;9.97;80.91;99196.75;11426343;25;20038;-64
2024/04/16 20:27:27;;;;;;;1.55;1.13;;;;;;;9.91;82.24;99198.19;11446166;25;20102;-64
2024/04/16 20:32:28;;;;;;;1.52;1.08;;;;;;;9.93;81.83;99206.03;11440636;25;20001;-64
2024/04/16 20:37:30;;;;;;;1.58;1.02;;;;;;;9.93;81.87;99214.00;11396080;25;20005;-64
2024/04/16 20:42:31;;;;;;;1.60;1.15;;;;;;;9.91;82.21;99204.34;11393582;25;20001;-63
2024/04/16 20:47:34;;;;;;;2.33;1.17;;;;;;;9.97;81.79;99208.25;11441150;25;20016;-63
2024/04/16 20:52:37;;;;;;;1.63;1.30;;;;;;;9.98;82.61;99209.06;11467784;25;19996;-64
2024/04/16 20:57:39;;;;;;;1.27;1.17;;;;;;;9.97;82.16;99213.56;11409430;25;20009;-64
2024/04/16 21:02:40;;;;;;;1.65;1.10;;;;;;;9.95;82.26;99222.66;11445479;25;20012;-64
2024/04/16 21:07:42;;;;;;;1.90;1.20;;;;;;;9.93;82.01;99227.28;11460086;25;20013;-64
2024/04/16 21:12:44;;;;;;;2.03;1.50;;;;;;;9.97;81.59;99223.34;11464599;25;22193;-62
2024/04/16 21:17:45;;;;;;;2.38;1.85;;;;;;;10.01;80.85;99233.56;11422165;25;20345;-63
2024/04/16 21:22:47;;;;;;;1.90;1.55;;;;;;;10.02;81.37;99239.72;11381655;25;20080;-65
2024/04/16 21:27:49;;;;;;;2.15;1.30;;;;;;;10.01;81.84;99240.69;11438246;25;20036;-63
2024/04/16 21:32:52;;;;;;;1.60;1.38;;;;;;;10.04;81.22;99240.41;11441127;25;20016;-64
2024/04/16 21:37:54;;;;;;;2.40;1.50;;;;;;;10.05;81.18;99234.09;11425545;25;20316;-62
2024/04/16 21:42:55;;;;;;;1.63;1.48;;;;;;;10.06;81.50;99251.75;11439066;25;20017;-65
2024/04/16 21:47:58;;;;;;;1.73;1.63;;;;;;;10.03;81.25;99252.88;11455431;25;20005;-63
2024/04/16 21:52:59;;;;;;;2.30;1.40;;;;;;;10.00;80.70;99249.66;11407552;25;20012;-63
2024/04/16 21:58:02;;;;;;;2.40;2.20;;;;;;;10.01;80.62;99246.00;11429461;25;20804;-63
2024/04/16 22:03:03;;;;;;;2.67;2.47;;;;;;;9.92;80.60;99239.72;11444344;25;20021;-63
2024/04/16 22:08:05;;;;;;;2.30;2.10;;;;;;;9.97;80.32;99260.56;11448783;25;20430;-62
2024/04/16 22:13:06;;;;;;;2.60;2.00;;;;;;;9.93;79.62;99257.38;11448395;25;20010;-63
2024/04/16 22:18:14;;;;;;;3.88;2.35;;;;;;;9.93;79.43;99264.50;11411696;25;20005;-64
2024/04/16 22:23:16;;;;;;;2.33;2.13;;;;;;;9.78;80.12;99267.59;11454543;25;20005;-64
2024/04/16 22:28:17;;;;;;;3.60;2.42;;;;;;;9.80;80.04;99272.78;11435809;25;20885;-64
2024/04/16 22:33:23;;;;;;;2.50;2.30;;;;;;;9.79;80.25;99274.59;11361644;25;20043;-63
2024/04/16 22:38:25;;;;;;;2.33;2.20;;;;;;;9.78;80.27;99278.25;11452014;25;20010;-62
2024/04/16 22:43:26;;;;;;;2.78;2.30;;;;;;;9.73;79.86;99280.50;11455102;25;19996;-63
2024/04/16 22:48:28;;;;;;;2.80;2.58;;;;;;;9.67;79.25;99291.69;11455162;25;20654;-63
2024/04/16 22:53:31;;;;;;;2.33;2.13;;;;;;;9.59;78.88;99286.22;11434079;25;20019;-63
2024/04/16 22:58:33;;;;;;;3.47;2.80;;;;;;;9.57;79.49;99280.22;11424766;25;19997;-63
2024/04/16 23:03:34;;;;;;;2.47;2.28;;;;;;;9.65;79.54;99296.28;11401521;25;20005;-63
2024/04/16 23:08:36;;;;;;;2.70;2.20;;;;;;;9.72;79.66;99303.56;11391117;25;20009;-63
2024/04/16 23:13:38;;;;;;;2.63;2.42;;;;;;;9.67;80.26;99278.41;11437814;25;20070;-63
2024/04/16 23:18:39;;;;;;;3.08;2.78;;;;;;;9.76;81.08;99305.94;11413953;25;20848;-63
2024/04/16 23:23:43;;;;;;;3.30;3.00;;;;;;;9.80;81.33;99299.34;11427887;25;19997;-64
2024/04/16 23:28:44;;;;;;;2.83;2.50;;;;;;;9.81;81.11;99299.22;11433702;25;20033;-63
2024/04/16 23:33:45;;;;;;;3.08;2.85;;;;;;;9.83;81.25;99291.97;11368869;25;20060;-64
2024/04/16 23:38:47;;;;;;;3.42;3.13;;;;;;;9.74;80.47;99276.84;11413304;25;20005;-62